Time;durP1;ratioP1;P1;durP2;ratioP2;P2;SDS_P1;SDS_P2;PMS_P1;PMS_P2;Temp;Humidity;BMP_temperature;BMP_pressure;BME280_temperature;BME280_humidity;BME280_pressure;Samples;Min_cycle;Max_cycle;Signal;HPM_P1;HPM_P2
2022/03/25 00:01:13;;;;;;;0.70;0.50;;;12.40;99.90;;;;;;5073339;28;20506;-80
2022/03/25 00:03:42;;;;;;;2.10;1.60;;;12.30;99.90;;;;;;5081588;28;20478;-80
2022/03/25 00:06:11;;;;;;;3.13;0.80;;;12.30;99.90;;;;;;5073013;28;20461;-80
2022/03/25 00:08:39;;;;;;;2.70;2.47;;;12.30;99.90;;;;;;5080580;28;20836;-80
2022/03/25 00:11:07;;;;;;;6.67;2.70;;;12.20;99.90;;;;;;5074596;28;20445;-79
2022/03/25 00:13:35;;;;;;;0.70;0.63;;;;;;;;;;5072318;28;20472;-80
2022/03/25 00:16:04;;;;;;;5.53;3.80;;;12.20;99.90;;;;;;5061405;28;20438;-81
2022/03/25 00:18:32;;;;;;;1.50;1.40;;;12.20;99.90;;;;;;5063474;28;20431;-81
2022/03/25 00:21:01;;;;;;;6.00;3.03;;;12.20;99.90;;;;;;5074612;28;20466;-80
2022/03/25 00:23:31;;;;;;;5.60;3.33;;;12.20;99.90;;;;;;5074285;28;20477;-81
2022/03/25 00:25:58;;;;;;;1.53;1.43;;;12.10;99.90;;;;;;5067291;28;20452;-81
2022/03/25 00:28:26;;;;;;;2.63;2.33;;;12.10;99.90;;;;;;5069695;28;20991;-79
2022/03/25 00:30:54;;;;;;;6.73;4.77;;;12.10;99.90;;;;;;5069145;28;20453;-81
2022/03/25 00:33:22;;;;;;;20.13;8.37;;;12.00;99.90;;;;;;5074909;28;20457;-82
2022/03/25 00:35:50;;;;;;;2.77;0.40;;;12.00;99.90;;;;;;5072011;28;20451;-81
2022/03/25 00:38:18;;;;;;;10.40;6.90;;;11.80;99.90;;;;;;5077323;28;20456;-80
2022/03/25 00:40:47;;;;;;;5.87;4.73;;;11.80;99.90;;;;;;5075472;28;20433;-80
2022/03/25 00:43:15;;;;;;;3.57;2.23;;;11.80;99.90;;;;;;5076532;28;20505;-79
2022/03/25 00:45:43;;;;;;;10.43;6.27;;;11.80;99.90;;;;;;5083543;28;20538;-79
2022/03/25 00:48:11;;;;;;;10.73;7.07;;;11.80;99.90;;;;;;5082357;28;20430;-78
2022/03/25 00:50:39;;;;;;;6.30;3.47;;;11.70;99.90;;;;;;5078279;28;20562;-80
2022/03/25 00:53:08;;;;;;;0.77;0.50;;;11.70;99.90;;;;;;5065337;28;20497;-81
2022/03/25 00:55:37;;;;;;;5.40;4.13;;;;;;;;;;5067508;28;20442;-80
2022/03/25 00:58:08;;;;;;;12.33;6.43;;;11.70;99.90;;;;;;5084524;28;20511;-80
2022/03/25 01:00:37;;;;;;;5.93;3.40;;;11.60;99.90;;;;;;5090519;28;20532;-78
2022/03/25 01:03:05;;;;;;;21.33;6.83;;;11.50;99.90;;;;;;5085851;28;20434;-80
2022/03/25 01:05:33;;;;;;;12.63;6.73;;;11.50;99.90;;;;;;5068373;28;20482;-80
2022/03/25 01:08:01;;;;;;;5.13;2.83;;;11.50;99.90;;;;;;5069016;28;20506;-80
2022/03/25 01:10:31;;;;;;;3.63;3.33;;;11.50;99.90;;;;;;5064085;28;20494;-81
2022/03/25 01:12:59;;;;;;;2.13;2.00;;;11.50;99.90;;;;;;5063126;28;20466;-81
2022/03/25 01:15:29;;;;;;;2.00;1.90;;;11.50;99.90;;;;;;5063636;28;20447;-80
2022/03/25 01:17:56;;;;;;;1.20;1.10;;;11.40;99.90;;;;;;5074631;28;20445;-80
2022/03/25 01:20:25;;;;;;;3.63;1.60;;;11.50;99.90;;;;;;5064353;28;20478;-81
2022/03/25 01:22:55;;;;;;;7.03;1.70;;;11.50;99.90;;;;;;5062028;28;20457;-82
2022/03/25 01:25:23;;;;;;;0.60;0.10;;;11.50;99.90;;;;;;5058154;28;20483;-81
2022/03/25 01:27:51;;;;;;;3.83;2.23;;;11.40;99.90;;;;;;5058485;28;20947;-81
2022/03/25 01:30:19;;;;;;;2.10;1.90;;;11.40;99.90;;;;;;5058873;28;20490;-82
2022/03/25 01:32:50;;;;;;;1.80;1.70;;;11.40;99.90;;;;;;5061503;28;20461;-81
2022/03/25 01:35:22;;;;;;;1.07;0.97;;;11.40;99.90;;;;;;5062008;28;20438;-81
2022/03/25 01:37:50;;;;;;;3.67;2.43;;;11.40;99.90;;;;;;5061672;28;20443;-81
2022/03/25 01:40:18;;;;;;;6.23;3.60;;;11.30;99.90;;;;;;5060471;28;20474;-80
2022/03/25 01:42:46;;;;;;;4.07;3.77;;;11.30;99.90;;;;;;5061065;28;20453;-79
2022/03/25 01:45:14;;;;;;;0.60;0.20;;;11.30;99.90;;;;;;5065378;28;20505;-80
2022/03/25 01:47:42;;;;;;;10.40;3.87;;;11.20;99.90;;;;;;5059206;28;20439;-77
2022/03/25 01:50:20;;;;;;;2.97;2.77;;;11.20;99.90;;;;;;5060292;28;20897;-80
2022/03/25 01:52:50;;;;;;;5.30;4.90;;;11.20;99.90;;;;;;5066031;28;20518;-79
2022/03/25 01:55:21;;;;;;;5.13;2.40;;;11.20;99.90;;;;;;5077176;28;20442;-79
2022/03/25 01:57:51;;;;;;;0.60;0.10;;;11.20;99.90;;;;;;5062093;28;20446;-80
2022/03/25 02:00:20;;;;;;;0.97;0.87;;;11.20;99.90;;;;;;5067630;28;21012;-80
2022/03/25 02:02:48;;;;;;;4.80;2.00;;;11.20;99.90;;;;;;5079011;28;20447;-79
2022/03/25 02:05:18;;;;;;;0.60;0.30;;;11.20;99.90;;;;;;5074055;28;20576;-81
2022/03/25 02:07:47;;;;;;;4.43;4.03;;;11.20;99.90;;;;;;5078939;28;20822;-80
2022/03/25 02:10:16;;;;;;;2.93;2.73;;;11.20;99.90;;;;;;5065763;28;20462;-80
2022/03/25 02:12:44;;;;;;;1.10;0.60;;;11.20;99.90;;;;;;5064013;28;20525;-82
2022/03/25 02:15:12;;;;;;;0.60;0.10;;;11.20;99.90;;;;;;5063281;28;20457;-81
2022/03/25 02:17:40;;;;;;;0.70;0.47;;;11.10;99.90;;;;;;5062653;28;20772;-79
2022/03/25 02:20:10;;;;;;;3.70;1.40;;;11.20;99.90;;;;;;5061698;28;20549;-80
2022/03/25 02:22:40;;;;;;;1.50;1.40;;;11.20;99.90;;;;;;5063773;28;20832;-80
2022/03/25 02:25:11;;;;;;;0.60;0.37;;;11.20;99.90;;;;;;5063604;28;20533;-79
2022/03/25 02:27:39;;;;;;;12.00;3.93;;;11.00;99.90;;;;;;5062871;28;20533;-79
2022/03/25 02:30:09;;;;;;;3.80;2.53;;;10.90;99.90;;;;;;5065545;28;20473;-80
2022/03/25 02:32:39;;;;;;;5.53;5.03;;;10.90;99.90;;;;;;5071601;28;20437;-78
2022/03/25 02:35:08;;;;;;;0.60;0.40;;;10.90;99.90;;;;;;5073823;28;20449;-79
2022/03/25 02:37:36;;;;;;;2.90;2.10;;;10.90;99.90;;;;;;5077088;28;20437;-78
2022/03/25 02:40:06;;;;;;;1.37;1.20;;;10.90;99.90;;;;;;5072963;28;20461;-79
2022/03/25 02:42:34;;;;;;;0.80;0.57;;;10.90;99.90;;;;;;5067620;28;20472;-81
2022/03/25 02:45:02;;;;;;;8.90;5.53;;;10.90;99.90;;;;;;5071418;28;20474;-78
2022/03/25 02:47:30;;;;;;;15.40;6.53;;;10.90;99.90;;;;;;5066537;28;20438;-80
2022/03/25 02:49:58;;;;;;;5.37;3.70;;;10.80;99.90;;;;;;5070625;28;20473;-80
2022/03/25 02:52:25;;;;;;;5.63;5.23;;;10.80;99.90;;;;;;5070802;28;20478;-81
2022/03/25 02:54:53;;;;;;;2.20;1.43;;;10.80;99.90;;;;;;5069904;28;20538;-78
2022/03/25 02:57:23;;;;;;;2.87;2.67;;;10.80;99.90;;;;;;5069999;28;20538;-78
2022/03/25 02:59:51;;;;;;;0.70;0.40;;;10.80;99.90;;;;;;5068212;28;20454;-82
2022/03/25 03:02:19;;;;;;;0.60;0.20;;;10.80;99.90;;;;;;5063537;28;20448;-80
2022/03/25 03:04:49;;;;;;;0.60;0.17;;;10.80;99.90;;;;;;5061619;28;20474;-81
2022/03/25 03:07:17;;;;;;;0.90;0.40;;;10.80;99.90;;;;;;5065971;28;20911;-81
2022/03/25 03:09:45;;;;;;;5.80;2.77;;;10.80;99.90;;;;;;5066115;28;20484;-81
2022/03/25 03:12:13;;;;;;;7.03;4.07;;;10.80;99.90;;;;;;5064942;28;20438;-80
2022/03/25 03:14:43;;;;;;;3.70;3.37;;;;;;;;;;5071221;28;20546;-78
2022/03/25 03:17:12;;;;;;;1.97;1.30;;;10.80;99.90;;;;;;5073930;28;20453;-78
2022/03/25 03:19:40;;;;;;;1.77;0.50;;;10.80;99.90;;;;;;5073203;28;20454;-79
2022/03/25 03:22:08;;;;;;;4.63;4.23;;;10.80;99.90;;;;;;5067723;28;20542;-79
2022/03/25 03:24:36;;;;;;;2.57;2.37;;;10.80;99.90;;;;;;5069784;28;20457;-80
2022/03/25 03:27:04;;;;;;;2.27;2.17;;;10.80;99.90;;;;;;5074525;28;20430;-78
2022/03/25 03:29:32;;;;;;;0.60;0.10;;;10.80;99.90;;;;;;5082891;23;20492;-84
2022/03/25 03:32:03;;;;;;;2.73;2.63;;;10.80;99.90;;;;;;5088090;28;20470;-83
2022/03/25 03:34:31;;;;;;;1.03;1.03;;;10.80;99.90;;;;;;5074409;28;20514;-82
2022/03/25 03:37:00;;;;;;;0.60;0.30;;;10.80;99.90;;;;;;5072101;28;20470;-84
2022/03/25 03:39:29;;;;;;;4.53;1.03;;;10.70;99.90;;;;;;5071042;28;20438;-84
2022/03/25 03:41:58;;;;;;;2.50;2.30;;;;;;;;;;5070949;28;20474;-84
2022/03/25 03:44:27;;;;;;;0.80;0.40;;;10.70;99.90;;;;;;5070872;28;20521;-84
2022/03/25 03:47:18;;;;;;;1.37;1.27;;;10.70;99.90;;;;;;5066891;28;20488;-84
2022/03/25 03:49:50;;;;;;;0.67;0.37;;;;;;;;;;5061911;28;20447;-81
2022/03/25 03:52:19;;;;;;;5.93;5.37;;;;;;;;;;5072696;28;20486;-83
2022/03/25 03:54:48;;;;;;;6.60;6.10;;;10.70;99.90;;;;;;5075092;28;20434;-83
2022/03/25 03:57:16;;;;;;;12.13;8.53;;;10.60;99.90;;;;;;5095141;28;20461;-85
2022/03/25 03:59:45;;;;;;;0.97;0.50;;;10.70;99.90;;;;;;5097780;28;20426;-82
2022/03/25 04:02:14;;;;;;;5.87;5.37;;;10.60;99.90;;;;;;5095636;28;20469;-83
2022/03/25 04:04:43;;;;;;;0.60;0.40;;;10.60;99.90;;;;;;5088919;28;20465;-83
2022/03/25 04:07:13;;;;;;;8.63;1.87;;;10.60;99.90;;;;;;5071317;28;20505;-81
2022/03/25 04:09:42;;;;;;;21.40;7.37;;;10.60;99.90;;;;;;5073290;28;20457;-82
2022/03/25 04:12:11;;;;;;;7.70;5.70;;;10.50;99.90;;;;;;5075411;28;20477;-83
2022/03/25 04:14:40;;;;;;;1.67;1.57;;;10.50;99.90;;;;;;5076526;28;20454;-82
2022/03/25 04:17:08;;;;;;;1.03;0.93;;;10.50;99.90;;;;;;5076693;28;20426;-84
2022/03/25 04:19:37;;;;;;;2.17;1.03;;;10.50;99.90;;;;;;5076980;28;20474;-86
2022/03/25 04:22:06;;;;;;;1.53;1.43;;;10.50;99.90;;;;;;5081104;28;20458;-83
2022/03/25 04:24:36;;;;;;;7.40;7.00;;;10.50;99.90;;;;;;5098989;28;20449;-84
2022/03/25 04:27:05;;;;;;;0.70;0.40;;;10.50;99.90;;;;;;5083108;28;20532;-83
2022/03/25 04:29:33;;;;;;;7.10;1.80;;;10.50;99.90;;;;;;5087940;28;20537;-83
2022/03/25 04:32:02;;;;;;;1.30;1.20;;;10.40;99.90;;;;;;5095621;28;20661;-84
2022/03/25 04:34:31;;;;;;;3.67;2.00;;;10.40;99.90;;;;;;5093403;28;20446;-84
2022/03/25 04:36:59;;;;;;;6.40;2.13;;;10.40;99.90;;;;;;5097533;28;20425;-85
2022/03/25 04:39:27;;;;;;;3.17;2.47;;;10.40;99.90;;;;;;5076598;28;20438;-85
2022/03/25 04:41:57;;;;;;;2.37;2.20;;;10.30;99.90;;;;;;5085608;28;20588;-84
2022/03/25 04:44:26;;;;;;;18.57;5.30;;;;;;;;;;5090930;28;20471;-85
2022/03/25 04:46:56;;;;;;;11.83;5.20;;;10.20;99.90;;;;;;5075300;28;20473;-84
2022/03/25 04:49:25;;;;;;;2.10;1.63;;;10.10;99.90;;;;;;5082208;28;20477;-84
2022/03/25 04:51:54;;;;;;;22.27;4.97;;;10.10;99.90;;;;;;5064271;28;20542;-84
2022/03/25 04:54:22;;;;;;;11.07;8.70;;;10.10;99.90;;;;;;5063792;28;20815;-85
2022/03/25 04:56:51;;;;;;;14.43;5.03;;;;;;;;;;5081523;28;20442;-84
2022/03/25 04:59:21;;;;;;;0.70;0.63;;;10.10;99.90;;;;;;5083351;28;20453;-84
2022/03/25 05:01:50;;;;;;;12.53;4.17;;;10.10;99.90;;;;;;5078794;28;20470;-84
2022/03/25 05:04:20;;;;;;;5.33;4.53;;;;;;;;;;5075948;28;20461;-84
2022/03/25 05:06:49;;;;;;;22.80;21.60;;;10.10;99.90;;;;;;5082729;28;20489;-84
2022/03/25 05:09:17;;;;;;;2.77;2.50;;;10.10;99.90;;;;;;5089363;28;20504;-83
2022/03/25 05:11:46;;;;;;;1.03;0.80;;;10.00;99.90;;;;;;5086719;28;20524;-84
2022/03/25 05:14:24;;;;;;;7.40;5.03;;;10.10;99.90;;;;;;5086311;28;20449;-83
2022/03/25 05:16:54;;;;;;;0.60;0.30;;;10.00;99.90;;;;;;5095899;28;20532;-83
2022/03/25 05:19:24;;;;;;;1.80;1.70;;;;;;;;;;5089951;28;20503;-82
2022/03/25 05:21:55;;;;;;;8.03;7.50;;;;;;;;;;5088048;28;20466;-84
2022/03/25 05:24:24;;;;;;;0.70;0.33;;;;;;;;;;5083497;28;20476;-83
2022/03/25 05:26:53;;;;;;;0.60;0.10;;;;;;;;;;5093814;28;20480;-83
2022/03/25 05:29:24;;;;;;;4.40;2.50;;;;;;;;;;5093790;28;20517;-83
2022/03/25 05:31:54;;;;;;;5.37;4.67;;;9.80;99.90;;;;;;5086143;28;20795;-84
2022/03/25 05:34:23;;;;;;;2.73;2.50;;;;;;;;;;5095525;28;20425;-84
2022/03/25 05:36:52;;;;;;;7.43;6.77;;;;;;;;;;5094820;28;20448;-83
2022/03/25 05:39:21;;;;;;;3.70;2.63;;;;;;;;;;5086657;28;20453;-83
2022/03/25 05:41:50;;;;;;;53.80;11.23;;;9.70;99.90;;;;;;5074092;28;20490;-84
2022/03/25 05:44:19;;;;;;;12.40;11.50;;;9.70;99.90;;;;;;5070432;28;20517;-84
2022/03/25 05:46:49;;;;;;;1.30;1.20;;;;;;;;;;5070381;28;20528;-84
2022/03/25 05:49:18;;;;;;;7.97;4.50;;;9.70;99.90;;;;;;5066145;28;20455;-85
2022/03/25 05:51:48;;;;;;;5.90;2.40;;;;;;;;;;5068987;28;20552;-84
2022/03/25 05:54:17;;;;;;;0.73;0.73;;;;;;;;;;5069322;28;20450;-84
2022/03/25 05:56:46;;;;;;;17.30;2.90;;;9.80;99.90;;;;;;5086126;28;20468;-84
2022/03/25 05:59:15;;;;;;;0.60;0.20;;;9.80;99.90;;;;;;5087148;28;20437;-84
2022/03/25 06:01:44;;;;;;;2.67;2.40;;;9.80;99.90;;;;;;5071006;28;20470;-84
2022/03/25 06:04:15;;;;;;;0.80;0.50;;;9.90;99.90;;;;;;5064920;28;20441;-83
2022/03/25 06:06:43;;;;;;;5.40;5.07;;;9.90;99.90;;;;;;5061596;28;20481;-84
2022/03/25 06:09:11;;;;;;;1.73;0.70;;;11.90;99.90;;;;;;5062722;28;20853;-83
2022/03/25 06:11:40;;;;;;;8.83;4.43;;;9.90;99.90;;;;;;5073428;28;20484;-83
2022/03/25 06:14:08;;;;;;;14.13;4.43;;;9.80;99.90;;;;;;5079500;28;20480;-84
2022/03/25 06:16:36;;;;;;;7.20;2.77;;;9.80;99.90;;;;;;5071519;28;20445;-84
2022/03/25 06:19:14;;;;;;;11.20;5.33;;;9.90;99.90;;;;;;5077937;28;20818;-87
2022/03/25 06:21:44;;;;;;;3.63;3.33;;;;;;;;;;5075333;28;20480;-84
2022/03/25 06:24:13;;;;;;;1.70;0.87;;;9.90;99.90;;;;;;5091466;28;20433;-83
2022/03/25 06:26:43;;;;;;;1.43;1.30;;;;;;;;;;5077897;28;20466;-85
2022/03/25 06:29:11;;;;;;;2.83;2.13;;;10.00;99.90;;;;;;5073871;28;20450;-83
2022/03/25 06:31:40;;;;;;;5.57;4.30;;;10.00;99.90;;;;;;5081067;28;20869;-83
2022/03/25 06:34:09;;;;;;;4.27;1.77;;;;;;;;;;5087700;28;20433;-82
2022/03/25 06:36:37;;;;;;;2.30;2.10;;;10.00;99.90;;;;;;5084420;28;20474;-82
2022/03/25 06:39:07;;;;;;;7.27;4.00;;;;;;;;;;5085274;28;20439;-81
2022/03/25 06:41:37;;;;;;;3.80;3.60;;;10.10;99.90;;;;;;5090726;28;20466;-82
2022/03/25 06:44:06;;;;;;;1.90;1.07;;;10.10;99.90;;;;;;5095026;28;21010;-83
2022/03/25 06:46:35;;;;;;;3.47;3.03;;;10.20;99.90;;;;;;5095212;28;20520;-84
2022/03/25 06:49:05;;;;;;;8.00;1.73;;;10.10;99.90;;;;;;5084719;28;20496;-84
2022/03/25 06:51:34;;;;;;;4.07;3.83;;;10.20;99.90;;;;;;5070624;28;20458;-83
2022/03/25 06:54:03;;;;;;;2.10;1.17;;;10.30;99.90;;;;;;5072566;28;20477;-83
2022/03/25 06:56:35;;;;;;;0.70;0.40;;;10.40;99.90;;;;;;5064490;28;20450;-83
2022/03/25 06:59:04;;;;;;;4.53;2.17;;;10.40;99.90;;;;;;5063938;28;20545;-83
2022/03/25 07:01:34;;;;;;;3.03;2.83;;;10.50;99.90;;;;;;5064255;28;20532;-85
2022/03/25 07:04:05;;;;;;;10.90;3.57;;;;;;;;;;5086767;28;20438;-84
2022/03/25 07:06:34;;;;;;;0.77;0.50;;;10.60;99.90;;;;;;5095254;28;20450;-83
2022/03/25 07:09:03;;;;;;;0.60;0.20;;;;;;;;;;5088264;28;20451;-84
2022/03/25 07:11:38;;;;;;;5.13;2.77;;;;;;;;;;5078492;28;20500;-85
2022/03/25 07:14:11;;;;;;;6.17;4.27;;;10.60;99.90;;;;;;5084619;28;20499;-83
2022/03/25 07:16:43;;;;;;;7.30;4.80;;;10.50;99.90;;;;;;5085543;28;20450;-83
2022/03/25 07:19:12;;;;;;;2.13;0.90;;;10.50;99.90;;;;;;5084399;28;20446;-84
2022/03/25 07:21:41;;;;;;;9.83;1.50;;;;;;;;;;5079703;28;20470;-84
2022/03/25 07:24:11;;;;;;;0.70;0.20;;;;;;;;;;5069798;28;20923;-82
2022/03/25 07:26:41;;;;;;;0.70;0.20;;;10.60;99.90;;;;;;5089966;28;20446;-82
2022/03/25 07:29:11;;;;;;;2.23;1.30;;;;;;;;;;5073945;28;20470;-83
2022/03/25 07:31:39;;;;;;;2.60;2.40;;;10.70;99.90;;;;;;5084184;28;20466;-83
2022/03/25 07:34:08;;;;;;;1.60;1.50;;;10.80;99.90;;;;;;5089253;28;20449;-83
2022/03/25 07:36:37;;;;;;;8.23;7.80;;;;;;;;;;5089419;28;20441;-83
2022/03/25 07:39:05;;;;;;;1.60;1.50;;;10.90;99.90;;;;;;5092432;28;20439;-84
2022/03/25 07:41:34;;;;;;;1.03;0.97;;;;;;;;;;5083405;28;20501;-83
2022/03/25 07:44:04;;;;;;;1.73;1.33;;;;;;;;;;5083069;28;20457;-84
2022/03/25 07:46:33;;;;;;;3.47;2.10;;;11.00;99.90;;;;;;5072594;28;20664;-86
2022/03/25 07:49:02;;;;;;;1.40;1.30;;;11.00;99.90;;;;;;5073240;28;20528;-83
2022/03/25 07:51:30;;;;;;;0.60;0.20;;;11.10;99.90;;;;;;5074833;28;20477;-84
2022/03/25 07:53:59;;;;;;;3.07;1.53;;;11.20;99.90;;;;;;5087231;28;20525;-83
2022/03/25 07:56:27;;;;;;;5.50;5.03;;;11.30;99.90;;;;;;5091739;28;20510;-83
2022/03/25 07:58:59;;;;;;;8.23;6.13;;;11.30;99.90;;;;;;5086741;28;20476;-84
2022/03/25 08:01:36;;;;;;;1.70;1.60;;;;;;;;;;5092792;28;20468;-83
2022/03/25 08:04:09;;;;;;;1.27;1.17;;;;;;;;;;5078399;28;20411;-84
2022/03/25 08:06:41;;;;;;;2.13;0.83;;;;;;;;;;5069310;28;21025;-80
2022/03/25 08:09:10;;;;;;;2.13;2.03;;;11.60;99.90;;;;;;5065590;28;20506;-83
2022/03/25 08:11:39;;;;;;;0.70;0.40;;;11.60;99.90;;;;;;5083855;28;20501;-83
2022/03/25 08:14:07;;;;;;;3.70;3.50;;;11.70;99.90;;;;;;5083663;28;20450;-82
2022/03/25 08:16:37;;;;;;;1.43;1.07;;;11.80;99.90;;;;;;5093736;28;20438;-82
2022/03/25 08:19:07;;;;;;;1.53;1.43;;;;;;;;;;5084811;28;20532;-86
2022/03/25 08:21:35;;;;;;;1.10;0.53;;;11.80;99.90;;;;;;5089376;28;20453;-84
2022/03/25 08:29:37;;;;;;;0.60;0.20;;;;;;;;;;5091961;28;20554;-83
2022/03/25 08:32:07;;;;;;;0.60;0.27;;;;;;;;;;5081470;28;20565;-82
2022/03/25 08:34:35;;;;;;;0.60;0.10;;;12.20;99.90;;;;;;5075741;28;20439;-84
2022/03/25 08:37:04;;;;;;;0.60;0.17;;;12.20;99.90;;;;;;5075270;28;20474;-83
2022/03/25 08:39:34;;;;;;;12.43;4.50;;;12.30;99.90;;;;;;5079015;28;20464;-83
2022/03/25 08:42:02;;;;;;;21.27;3.83;;;12.40;99.90;;;;;;5092297;28;20478;-86
2022/03/25 08:44:31;;;;;;;1.77;1.67;;;;;;;;;;5085780;28;20443;-85
2022/03/25 08:46:59;;;;;;;0.60;0.10;;;;;;;;;;5076459;28;20458;-85
2022/03/25 08:49:45;;;;;;;1.10;0.87;;;;;;;;;;5090532;28;20529;-87
2022/03/25 08:52:14;;;;;;;2.10;1.80;;;;;;;;;;5083740;28;20477;-84
2022/03/25 08:54:43;;;;;;;0.60;0.10;;;;;;;;;;5066188;28;20434;-85
2022/03/25 08:57:11;;;;;;;2.73;1.90;;;;;;;;;;5074672;28;20453;-84
2022/03/25 08:59:51;;;;;;;0.60;0.10;;;;;;;;;;5070917;28;20499;-86
2022/03/25 09:02:24;;;;;;;1.90;1.80;;;;;;;;;;5064488;28;20475;-84
2022/03/25 09:04:56;;;;;;;2.37;1.53;;;;;;;;;;5068643;28;20459;-85
2022/03/25 09:07:26;;;;;;;0.60;0.30;;;;;;;;;;5071291;28;20487;-84
2022/03/25 09:09:55;;;;;;;6.50;6.00;;;;;;;;;;5069267;28;20490;-85
2022/03/25 09:12:25;;;;;;;0.60;0.10;;;;;;;;;;5065203;28;21014;-83
2022/03/25 09:14:54;;;;;;;0.60;0.10;;;;;;;;;;5079824;28;20462;-84
2022/03/25 09:17:23;;;;;;;0.60;0.20;;;;;;;;;;5083538;28;20453;-86
2022/03/25 09:19:56;;;;;;;2.47;2.27;;;;;;;;;;5082271;28;20457;-85
2022/03/25 09:22:28;;;;;;;2.83;2.63;;;;;;;;;;5089247;28;20441;-85
2022/03/25 09:24:56;;;;;;;0.60;0.20;;;13.60;99.90;;;;;;5093909;28;20465;-85
2022/03/25 09:27:26;;;;;;;0.60;0.10;;;;;;;;;;5081263;28;20458;-86
2022/03/25 09:29:55;;;;;;;0.60;0.10;;;;;;;;;;5069467;28;20482;-85
2022/03/25 09:32:24;;;;;;;16.47;7.30;;;;;;;;;;5080841;28;20470;-84
2022/03/25 09:35:10;;;;;;;11.93;6.33;;;;;;;;;;5081414;28;20439;-85
2022/03/25 09:37:40;;;;;;;4.80;4.17;;;;;;;;;;5083424;28;20447;-85
2022/03/25 09:40:10;;;;;;;1.57;1.03;;;;;;;;;;5084204;28;20442;-83
2022/03/25 09:42:40;;;;;;;4.13;3.93;;;;;;;;;;5082851;28;20470;-82
2022/03/25 09:45:10;;;;;;;11.70;10.73;;;;;;;;;;5081633;28;20449;-83
2022/03/25 09:47:39;;;;;;;2.63;2.47;;;;;;;;;;5080791;28;20465;-84
2022/03/25 09:50:14;;;;;;;8.83;8.47;;;14.20;99.90;;;;;;5065268;28;20491;-85
2022/03/25 09:52:43;;;;;;;1.23;1.13;;;;;;;;;;5073903;28;20503;-85
2022/03/25 09:55:48;;;;;;;12.70;11.77;;;14.30;99.90;;;;;;5081837;28;20562;-85
2022/03/25 09:58:18;;;;;;;17.43;4.80;;;14.40;99.90;;;;;;5087257;28;20445;-85
2022/03/25 10:00:55;;;;;;;0.70;0.60;;;14.50;99.90;;;;;;5085003;28;20465;-85
2022/03/25 10:03:35;;;;;;;11.10;2.87;;;14.60;99.90;;;;;;5062570;28;20554;-85
2022/03/25 10:06:14;;;;;;;0.60;0.10;;;;;;;;;;5061532;28;20442;-85
2022/03/25 10:08:56;;;;;;;9.80;1.20;;;;;;;;;;5064787;28;20505;-85
2022/03/25 10:11:26;;;;;;;8.23;1.20;;;;;;;;;;5086194;28;20477;-85
2022/03/25 10:14:15;;;;;;;2.03;1.47;;;;;;;;;;5084393;28;20461;-85
2022/03/25 10:16:45;;;;;;;15.83;2.50;;;;;;;;;;5086722;28;20576;-87
2022/03/25 10:19:19;;;;;;;1.70;1.60;;;15.20;99.90;;;;;;5087251;28;20433;-84
2022/03/25 10:21:53;;;;;;;0.60;0.17;;;;;;;;;;5085924;28;20542;-84
2022/03/25 10:24:39;;;;;;;0.73;0.37;;;15.30;99.90;;;;;;5085961;28;20459;-83
2022/03/25 10:27:15;;;;;;;0.60;0.10;;;;;;;;;;5078238;28;21041;-84
2022/03/25 10:29:46;;;;;;;1.00;1.00;;;;;;;;;;5085976;28;20473;-85
2022/03/25 10:32:18;;;;;;;8.03;7.33;;;;;;;;;;5088296;28;20485;-84
2022/03/25 10:35:01;;;;;;;1.50;1.40;;;;;;;;;;5074747;28;20460;-85
2022/03/25 10:37:46;;;;;;;;;;;;;;;;;;;;;
2022/03/25 10:40:35;;;;;;;0.60;0.10;;;;;;;;;;5087742;28;20692;-85
2022/03/25 10:43:11;;;;;;;24.53;13.00;;;;;;;;;;5087889;28;20482;-85
2022/03/25 10:45:40;;;;;;;3.57;3.27;;;;;;;;;;5086619;28;20461;-86
2022/03/25 10:48:17;;;;;;;9.93;8.90;;;15.90;99.90;;;;;;5079459;28;20464;-83
2022/03/25 10:51:02;;;;;;;3.80;3.60;;;16.00;99.90;;;;;;5062711;28;20490;-83
2022/03/25 10:53:34;;;;;;;7.43;2.77;;;16.00;99.90;;;;;;5065388;28;20459;-83
2022/03/25 10:56:06;;;;;;;14.53;3.33;;;;;;;;;;5065008;28;20461;-85
2022/03/25 10:58:36;;;;;;;8.63;5.90;;;;;;;;;;5082119;28;20458;-85
2022/03/25 11:01:07;;;;;;;2.67;2.53;;;;;;;;;;5069868;28;20500;-84
2022/03/25 11:03:39;;;;;;;47.93;44.40;;;;;;;;;;5080099;28;20434;-86
2022/03/25 11:09:40;;;;;;;3.07;2.83;;;;;;;;;;5048567;28;20873;-83
2022/03/25 11:12:12;;;;;;;2.80;2.20;;;;;;;;;;5081593;28;20826;-86
2022/03/25 11:14:42;;;;;;;0.77;0.63;;;16.50;99.90;;;;;;5083022;28;20452;-84
2022/03/25 11:17:12;;;;;;;4.80;4.40;;;;;;;;;;5083173;28;20443;-87
2022/03/25 11:19:49;;;;;;;5.00;3.03;;;16.80;99.90;;;;;;5094444;28;20424;-85
2022/03/25 11:22:32;;;;;;;2.83;2.67;;;;;;;;;;5087044;28;20555;-85
2022/03/25 11:25:15;;;;;;;0.90;0.73;;;;;;;;;;5088281;28;20453;-87
2022/03/25 11:27:58;;;;;;;40.17;37.47;;;;;;;;;;5081461;28;20455;-85
2022/03/25 11:30:37;;;;;;;3.73;3.50;;;;;;;;;;5087471;28;20487;-85
2022/03/25 11:33:11;;;;;;;5.77;5.20;;;;;;;;;;5092052;28;20530;-86
2022/03/25 11:35:44;;;;;;;6.87;1.80;;;;;;;;;;5091803;28;20504;-84
2022/03/25 11:38:23;;;;;;;1.63;1.53;;;;;;;;;;5089613;28;20450;-87
2022/03/25 11:40:54;;;;;;;2.07;1.40;;;;;;;;;;5086650;28;20452;-85
2022/03/25 11:43:29;;;;;;;2.30;2.00;;;17.50;99.90;;;;;;5070281;28;20439;-83
2022/03/25 11:46:05;;;;;;;2.77;2.63;;;;;;;;;;5078369;28;20442;-85
2022/03/25 11:48:41;;;;;;;0.70;0.50;;;;;;;;;;5079180;28;20442;-85
2022/03/25 11:51:26;;;;;;;5.70;2.77;;;17.60;99.90;;;;;;5082206;28;20505;-84
2022/03/25 11:53:56;;;;;;;6.60;4.33;;;;;;;;;;5094954;28;20478;-83
2022/03/25 11:56:25;;;;;;;3.07;2.87;;;;;;;;;;5092069;28;20482;-83
2022/03/25 11:59:00;;;;;;;0.70;0.50;;;;;;;;;;5070993;28;20446;-85
2022/03/25 12:01:30;;;;;;;2.17;2.00;;;;;;;;;;5074345;28;20437;-83
2022/03/25 12:07:30;;;;;;;7.07;5.97;;;;;;;;;;5084955;28;20595;-84
2022/03/25 12:09:59;;;;;;;1.03;1.03;;;;;;;;;;5094932;28;20480;-82
2022/03/25 12:12:54;;;;;;;3.90;2.53;;;18.00;99.90;;;;;;5088387;28;20468;-84
2022/03/25 12:15:43;;;;;;;4.10;3.80;;;18.10;99.90;;;;;;5074064;28;20541;-83
2022/03/25 12:18:40;;;;;;;13.63;3.70;;;18.10;99.90;;;;;;5083050;28;20463;-85
2022/03/25 12:21:45;;;;;;;10.00;7.43;;;18.10;99.90;;;;;;5077235;28;20457;-83
2022/03/25 12:24:14;;;;;;;2.77;2.57;;;;;;;;;;5071013;28;20938;-83
2022/03/25 12:26:43;;;;;;;10.03;6.40;;;;;;;;;;5086831;28;20482;-83
2022/03/25 12:29:11;;;;;;;4.63;4.30;;;18.20;99.90;;;;;;5087841;28;20441;-83
2022/03/25 12:31:42;;;;;;;0.60;0.10;;;;;;;;;;5075069;28;20544;-83
2022/03/25 12:34:11;;;;;;;1.07;1.03;;;;;;;;;;5084020;28;20453;-84
2022/03/25 12:36:44;;;;;;;1.63;1.53;;;18.60;99.90;;;;;;5079877;28;20505;-85
2022/03/25 12:39:14;;;;;;;1.67;1.57;;;;;;;;;;5069222;28;20593;-83
2022/03/25 12:41:47;;;;;;;4.00;3.70;;;18.50;99.90;;;;;;5069314;28;20506;-85
2022/03/25 12:44:26;;;;;;;3.63;1.17;;;18.50;99.90;;;;;;5087368;28;20451;-83
2022/03/25 12:47:00;;;;;;;0.90;0.60;;;18.50;99.90;;;;;;5084618;28;20477;-83
2022/03/25 12:49:29;;;;;;;5.73;4.60;;;;;;;;;;5073283;28;20492;-84
2022/03/25 12:51:58;;;;;;;3.37;3.07;;;;;;;;;;5072180;28;21170;-83
2022/03/25 12:54:29;;;;;;;10.57;4.13;;;18.60;99.90;;;;;;5074166;28;20450;-82
2022/03/25 12:56:58;;;;;;;11.47;10.43;;;18.60;99.90;;;;;;5074302;28;20446;-84
2022/03/25 12:59:57;;;;;;;8.23;5.80;;;18.70;99.90;;;;;;5074814;28;20428;-83
2022/03/25 13:02:33;;;;;;;6.30;2.50;;;18.80;99.90;;;;;;5075918;28;20479;-85
2022/03/25 13:05:06;;;;;;;1.17;1.07;;;;;;;;;;5075068;28;20521;-83
2022/03/25 13:07:35;;;;;;;3.83;1.50;;;;;;;;;;5085239;28;20487;-84
2022/03/25 13:10:04;;;;;;;7.63;6.90;;;;;;;;;;5087857;28;20470;-84
2022/03/25 13:12:35;;;;;;;4.87;4.10;;;18.80;99.90;;;;;;5066990;28;20463;-84
2022/03/25 13:15:05;;;;;;;2.07;1.87;;;18.80;99.90;;;;;;5084548;28;20945;-84
2022/03/25 13:17:41;;;;;;;5.10;4.13;;;18.90;99.90;;;;;;5080993;28;20448;-84
2022/03/25 13:20:17;;;;;;;2.90;2.50;;;18.90;99.90;;;;;;5093711;28;20425;-84
2022/03/25 13:22:58;;;;;;;1.33;0.77;;;19.00;99.90;;;;;;5093247;28;20483;-84
2022/03/25 13:25:28;;;;;;;1.43;1.33;;;;;;;;;;5093999;28;20419;-84
2022/03/25 13:27:57;;;;;;;0.60;0.20;;;17.60;99.90;;;;;;5090737;28;20447;-83
2022/03/25 13:30:26;;;;;;;4.53;4.10;;;;;;;;;;5093183;28;20507;-84
2022/03/25 13:33:04;;;;;;;3.50;3.27;;;19.10;99.90;;;;;;5081957;28;20450;-84
2022/03/25 13:35:51;;;;;;;2.40;1.57;;;;;;;;;;5075627;28;20433;-85
2022/03/25 13:38:51;;;;;;;3.23;3.13;;;;;;;;;;5066756;28;20506;-84
2022/03/25 13:41:38;;;;;;;1.63;1.53;;;;;;;;;;5086113;28;20461;-84
2022/03/25 13:44:37;;;;;;;12.20;9.20;;;;;;;;;;5078346;28;20495;-84
2022/03/25 13:47:10;;;;;;;3.43;3.23;;;;;;;;;;5079303;28;20456;-84
2022/03/25 13:49:40;;;;;;;1.20;1.10;;;;;;;;;;5084829;28;20457;-84
2022/03/25 13:52:09;;;;;;;2.73;2.53;;;;;;;;;;5088944;28;20494;-83
2022/03/25 13:54:38;;;;;;;0.60;0.20;;;;;;;;;;5094064;28;20456;-84
2022/03/25 13:57:06;;;;;;;12.00;2.90;;;;;;;;;;5074930;28;20449;-83
2022/03/25 13:59:40;;;;;;;0.70;0.40;;;19.40;99.90;;;;;;5065604;28;20963;-84
2022/03/25 14:02:21;;;;;;;1.77;1.30;;;18.90;99.90;;;;;;5070875;28;20490;-84